sensor_id;sensor_type;location;lat;lon;timestamp;pressure;altitude;pressure_sealevel;temperature
70389;BMP280;58659;49.050;8.530;2022-10-31T00:01:09;99903.25;;;11.12
70389;BMP280;58659;49.050;8.530;2022-10-31T00:03:34;99926.19;;;11.22
70389;BMP280;58659;49.050;8.530;2022-10-31T00:06:00;99970.47;;;11.34
70389;BMP280;58659;49.050;8.530;2022-10-31T00:08:26;99968.63;;;11.12
70389;BMP280;58659;49.050;8.530;2022-10-31T00:10:52;99956.59;;;11.08
70389;BMP280;58659;49.050;8.530;2022-10-31T00:13:17;99972.19;;;11.23
70389;BMP280;58659;49.050;8.530;2022-10-31T00:15:42;100000.50;;;11.40
70389;BMP280;58659;49.050;8.530;2022-10-31T00:18:08;99979.38;;;11.30
70389;BMP280;58659;49.050;8.530;2022-10-31T00:20:33;100018.28;;;11.54
70389;BMP280;58659;49.050;8.530;2022-10-31T00:22:59;99931.44;;;11.22
70389;BMP280;58659;49.050;8.530;2022-10-31T00:25:25;100046.81;;;11.40
70389;BMP280;58659;49.050;8.530;2022-10-31T00:27:50;100043.88;;;11.41
70389;BMP280;58659;49.050;8.530;2022-10-31T00:30:15;100001.13;;;11.34
70389;BMP280;58659;49.050;8.530;2022-10-31T00:32:41;100008.38;;;11.21
70389;BMP280;58659;49.050;8.530;2022-10-31T00:35:06;99965.38;;;10.77
70389;BMP280;58659;49.050;8.530;2022-10-31T00:37:31;99918.06;;;10.24
70389;BMP280;58659;49.050;8.530;2022-10-31T00:39:56;99919.38;;;10.34
70389;BMP280;58659;49.050;8.530;2022-10-31T00:42:22;99846.47;;;9.87
70389;BMP280;58659;49.050;8.530;2022-10-31T00:44:47;99878.72;;;10.14
70389;BMP280;58659;49.050;8.530;2022-10-31T00:47:12;99862.44;;;10.20
70389;BMP280;58659;49.050;8.530;2022-10-31T00:49:37;99860.06;;;10.15
70389;BMP280;58659;49.050;8.530;2022-10-31T00:52:02;99844.91;;;10.21
70389;BMP280;58659;49.050;8.530;2022-10-31T00:54:28;99865.25;;;10.31
70389;BMP280;58659;49.050;8.530;2022-10-31T00:56:53;99838.47;;;10.15
70389;BMP280;58659;49.050;8.530;2022-10-31T00:59:19;99826.94;;;10.00
70389;BMP280;58659;49.050;8.530;2022-10-31T01:01:44;99819.41;;;9.95
70389;BMP280;58659;49.050;8.530;2022-10-31T01:04:09;99875.50;;;10.39
70389;BMP280;58659;49.050;8.530;2022-10-31T01:06:34;99820.38;;;10.06
70389;BMP280;58659;49.050;8.530;2022-10-31T01:08:59;99868.34;;;10.17
70389;BMP280;58659;49.050;8.530;2022-10-31T01:11:24;99876.72;;;10.26
70389;BMP280;58659;49.050;8.530;2022-10-31T01:13:50;99883.16;;;10.32
70389;BMP280;58659;49.050;8.530;2022-10-31T01:16:17;99819.19;;;9.84
70389;BMP280;58659;49.050;8.530;2022-10-31T01:18:42;99846.22;;;10.11
70389;BMP280;58659;49.050;8.530;2022-10-31T01:21:09;99838.25;;;10.04
70389;BMP280;58659;49.050;8.530;2022-10-31T01:23:34;99844.69;;;10.10
70389;BMP280;58659;49.050;8.530;2022-10-31T01:28:25;99815.69;;;9.77
70389;BMP280;58659;49.050;8.530;2022-10-31T01:30:50;99835.91;;;9.80
70389;BMP280;58659;49.050;8.530;2022-10-31T01:33:15;99854.97;;;9.84
70389;BMP280;58659;49.050;8.530;2022-10-31T01:35:40;99834.16;;;9.68
70389;BMP280;58659;49.050;8.530;2022-10-31T01:38:06;99804.31;;;9.50
70389;BMP280;58659;49.050;8.530;2022-10-31T01:40:31;99727.38;;;9.06
70389;BMP280;58659;49.050;8.530;2022-10-31T01:42:56;99732.88;;;9.20
70389;BMP280;58659;49.050;8.530;2022-10-31T01:45:21;99784.66;;;9.37
70389;BMP280;58659;49.050;8.530;2022-10-31T01:47:47;99799.19;;;9.54
70389;BMP280;58659;49.050;8.530;2022-10-31T01:50:15;99695.22;;;8.98
70389;BMP280;58659;49.050;8.530;2022-10-31T01:52:44;99790.19;;;9.51
70389;BMP280;58659;49.050;8.530;2022-10-31T01:55:18;99747.19;;;9.26
70389;BMP280;58659;49.050;8.530;2022-10-31T01:57:45;99840.53;;;9.71
70389;BMP280;58659;49.050;8.530;2022-10-31T02:00:12;99806.59;;;9.52
70389;BMP280;58659;49.050;8.530;2022-10-31T02:02:37;99837.19;;;9.55
70389;BMP280;58659;49.050;8.530;2022-10-31T02:05:04;99795.53;;;9.23
70389;BMP280;58659;49.050;8.530;2022-10-31T02:07:32;99784.78;;;9.09
70389;BMP280;58659;49.050;8.530;2022-10-31T02:09:59;99793.75;;;9.12
70389;BMP280;58659;49.050;8.530;2022-10-31T02:12:25;99752.34;;;8.91
70389;BMP280;58659;49.050;8.530;2022-10-31T02:14:51;99733.78;;;8.92
70389;BMP280;58659;49.050;8.530;2022-10-31T02:17:16;99690.78;;;8.67
70389;BMP280;58659;49.050;8.530;2022-10-31T02:22:12;99695.00;;;9.07
70389;BMP280;58659;49.050;8.530;2022-10-31T02:27:50;99733.97;;;9.19
70389;BMP280;58659;49.050;8.530;2022-10-31T02:30:18;99777.06;;;9.47
70389;BMP280;58659;49.050;8.530;2022-10-31T02:35:21;99775.34;;;9.20
70389;BMP280;58659;49.050;8.530;2022-10-31T02:45:28;99771.22;;;9.35
70389;BMP280;58659;49.050;8.530;2022-10-31T02:47:54;99804.94;;;9.43
70389;BMP280;58659;49.050;8.530;2022-10-31T02:50:23;99776.72;;;9.14
70389;BMP280;58659;49.050;8.530;2022-10-31T02:52:51;99778.16;;;8.96
70389;BMP280;58659;49.050;8.530;2022-10-31T02:57:55;99747.28;;;8.82
70389;BMP280;58659;49.050;8.530;2022-10-31T03:00:21;99746.13;;;8.95
70389;BMP280;58659;49.050;8.530;2022-10-31T03:05:23;99730.56;;;8.83
70389;BMP280;58659;49.050;8.530;2022-10-31T03:07:57;99735.03;;;8.83
70389;BMP280;58659;49.050;8.530;2022-10-31T03:12:53;99765.88;;;8.96
70389;BMP280;58659;49.050;8.530;2022-10-31T03:17:50;99768.63;;;9.19
70389;BMP280;58659;49.050;8.530;2022-10-31T03:20:20;99776.91;;;9.40
70389;BMP280;58659;49.050;8.530;2022-10-31T03:22:47;99762.50;;;9.12
70389;BMP280;58659;49.050;8.530;2022-10-31T03:25:12;99779.56;;;9.09
70389;BMP280;58659;49.050;8.530;2022-10-31T03:27:38;99773.94;;;8.91
70389;BMP280;58659;49.050;8.530;2022-10-31T03:30:05;99775.31;;;8.85
70389;BMP280;58659;49.050;8.530;2022-10-31T03:32:36;99823.34;;;8.88
70389;BMP280;58659;49.050;8.530;2022-10-31T03:35:03;99819.91;;;8.84
70389;BMP280;58659;49.050;8.530;2022-10-31T03:37:29;99809.06;;;8.82
70389;BMP280;58659;49.050;8.530;2022-10-31T03:39:55;99791.34;;;9.03
70389;BMP280;58659;49.050;8.530;2022-10-31T03:42:25;99748.97;;;9.06
70389;BMP280;58659;49.050;8.530;2022-10-31T03:45:02;99807.16;;;9.61
70389;BMP280;58659;49.050;8.530;2022-10-31T03:47:29;99848.81;;;9.92
70389;BMP280;58659;49.050;8.530;2022-10-31T03:49:54;99857.88;;;9.63
70389;BMP280;58659;49.050;8.530;2022-10-31T03:52:27;99873.16;;;9.65
70389;BMP280;58659;49.050;8.530;2022-10-31T03:54:57;99908.59;;;9.66
70389;BMP280;58659;49.050;8.530;2022-10-31T03:57:25;99910.41;;;9.62
70389;BMP280;58659;49.050;8.530;2022-10-31T03:59:57;99906.03;;;9.50
70389;BMP280;58659;49.050;8.530;2022-10-31T04:02:26;99876.56;;;9.18
70389;BMP280;58659;49.050;8.530;2022-10-31T04:04:52;99915.88;;;9.25
70389;BMP280;58659;49.050;8.530;2022-10-31T04:07:17;99892.88;;;9.46
70389;BMP280;58659;49.050;8.530;2022-10-31T04:09:44;99861.16;;;9.60
70389;BMP280;58659;49.050;8.530;2022-10-31T04:12:10;99831.88;;;9.67
70389;BMP280;58659;49.050;8.530;2022-10-31T04:14:38;99890.31;;;9.97
70389;BMP280;58659;49.050;8.530;2022-10-31T04:17:08;99949.19;;;10.14
70389;BMP280;58659;49.050;8.530;2022-10-31T04:19:34;99916.78;;;9.80
70389;BMP280;58659;49.050;8.530;2022-10-31T04:21:59;99934.28;;;9.32
70389;BMP280;58659;49.050;8.530;2022-10-31T04:24:25;99942.75;;;9.29
70389;BMP280;58659;49.050;8.530;2022-10-31T04:26:50;99870.38;;;9.07
70389;BMP280;58659;49.050;8.530;2022-10-31T04:29:15;99843.28;;;9.12
70389;BMP280;58659;49.050;8.530;2022-10-31T04:31:40;99860.69;;;9.39
70389;BMP280;58659;49.050;8.530;2022-10-31T04:34:06;99842.31;;;9.16
70389;BMP280;58659;49.050;8.530;2022-10-31T04:36:32;99845.63;;;9.01
70389;BMP280;58659;49.050;8.530;2022-10-31T04:38:57;99825.19;;;8.87
70389;BMP280;58659;49.050;8.530;2022-10-31T04:41:22;99752.41;;;8.47
70389;BMP280;58659;49.050;8.530;2022-10-31T04:43:47;99856.88;;;8.89
70389;BMP280;58659;49.050;8.530;2022-10-31T04:46:13;99866.13;;;8.87
70389;BMP280;58659;49.050;8.530;2022-10-31T04:48:38;99831.78;;;8.54
70389;BMP280;58659;49.050;8.530;2022-10-31T04:51:03;99796.56;;;8.16
70389;BMP280;58659;49.050;8.530;2022-10-31T04:53:28;99848.34;;;8.33
70389;BMP280;58659;49.050;8.530;2022-10-31T04:55:53;99853.38;;;8.26
70389;BMP280;58659;49.050;8.530;2022-10-31T04:58:19;99838.00;;;8.09
70389;BMP280;58659;49.050;8.530;2022-10-31T05:00:44;99842.06;;;7.94
70389;BMP280;58659;49.050;8.530;2022-10-31T05:03:09;99818.09;;;7.89
70389;BMP280;58659;49.050;8.530;2022-10-31T05:05:34;99857.34;;;7.96
70389;BMP280;58659;49.050;8.530;2022-10-31T05:08:00;99802.44;;;7.61
70389;BMP280;58659;49.050;8.530;2022-10-31T05:10:26;99789.44;;;7.61
70389;BMP280;58659;49.050;8.530;2022-10-31T05:12:55;99823.28;;;8.01
70389;BMP280;58659;49.050;8.530;2022-10-31T05:15:21;99799.38;;;7.83
70389;BMP280;58659;49.050;8.530;2022-10-31T05:17:47;99775.84;;;7.80
70389;BMP280;58659;49.050;8.530;2022-10-31T05:20:13;99787.91;;;7.72
70389;BMP280;58659;49.050;8.530;2022-10-31T05:22:42;99729.47;;;7.82
70389;BMP280;58659;49.050;8.530;2022-10-31T05:25:08;99733.97;;;8.25
70389;BMP280;58659;49.050;8.530;2022-10-31T05:27:33;99708.25;;;8.08
70389;BMP280;58659;49.050;8.530;2022-10-31T05:29:58;99734.59;;;8.06
70389;BMP280;58659;49.050;8.530;2022-10-31T05:32:23;99777.41;;;8.09
70389;BMP280;58659;49.050;8.530;2022-10-31T05:34:49;99749.75;;;7.76
70389;BMP280;58659;49.050;8.530;2022-10-31T05:37:14;99765.91;;;7.70
70389;BMP280;58659;49.050;8.530;2022-10-31T05:39:39;99752.81;;;7.66
70389;BMP280;58659;49.050;8.530;2022-10-31T05:42:04;99705.53;;;7.36
70389;BMP280;58659;49.050;8.530;2022-10-31T05:44:30;99765.06;;;7.53
70389;BMP280;58659;49.050;8.530;2022-10-31T05:46:55;99758.25;;;7.49
70389;BMP280;58659;49.050;8.530;2022-10-31T05:49:20;99775.91;;;7.56
70389;BMP280;58659;49.050;8.530;2022-10-31T05:51:45;99794.09;;;7.68
70389;BMP280;58659;49.050;8.530;2022-10-31T05:54:10;99787.69;;;7.53
70389;BMP280;58659;49.050;8.530;2022-10-31T05:56:36;99836.22;;;7.85
70389;BMP280;58659;49.050;8.530;2022-10-31T05:59:01;99770.47;;;7.61
70389;BMP280;58659;49.050;8.530;2022-10-31T06:01:26;99748.38;;;7.55
70389;BMP280;58659;49.050;8.530;2022-10-31T06:03:51;99744.25;;;7.53
70389;BMP280;58659;49.050;8.530;2022-10-31T06:06:16;99797.66;;;7.63
70389;BMP280;58659;49.050;8.530;2022-10-31T06:08:41;99787.16;;;7.60
70389;BMP280;58659;49.050;8.530;2022-10-31T06:11:07;99771.69;;;7.51
70389;BMP280;58659;49.050;8.530;2022-10-31T06:13:32;99784.56;;;7.60
70389;BMP280;58659;49.050;8.530;2022-10-31T06:15:57;99775.03;;;7.64
70389;BMP280;58659;49.050;8.530;2022-10-31T06:18:22;99752.03;;;7.66
70389;BMP280;58659;49.050;8.530;2022-10-31T06:20:47;99732.28;;;7.49
70389;BMP280;58659;49.050;8.530;2022-10-31T06:23:13;99756.78;;;7.76
70389;BMP280;58659;49.050;8.530;2022-10-31T06:25:38;99710.78;;;7.64
70389;BMP280;58659;49.050;8.530;2022-10-31T06:28:03;99672.53;;;7.65
70389;BMP280;58659;49.050;8.530;2022-10-31T06:30:29;99731.69;;;8.08
70389;BMP280;58659;49.050;8.530;2022-10-31T06:32:54;99540.34;;;7.23
70389;BMP280;58659;49.050;8.530;2022-10-31T06:35:19;99626.88;;;7.79
70389;BMP280;58659;49.050;8.530;2022-10-31T06:37:52;99582.50;;;7.72
70389;BMP280;58659;49.050;8.530;2022-10-31T06:40:17;99794.50;;;8.81
70389;BMP280;58659;49.050;8.530;2022-10-31T06:42:42;99791.56;;;8.82
70389;BMP280;58659;49.050;8.530;2022-10-31T06:45:08;99785.72;;;8.85
70389;BMP280;58659;49.050;8.530;2022-10-31T06:47:33;99793.25;;;8.90
70389;BMP280;58659;49.050;8.530;2022-10-31T06:49:58;99797.22;;;9.00
70389;BMP280;58659;49.050;8.530;2022-10-31T06:52:23;99798.84;;;9.05
70389;BMP280;58659;49.050;8.530;2022-10-31T06:54:49;99801.84;;;9.07
70389;BMP280;58659;49.050;8.530;2022-10-31T06:57:14;99802.63;;;9.07
70389;BMP280;58659;49.050;8.530;2022-10-31T06:59:39;99803.22;;;9.16
70389;BMP280;58659;49.050;8.530;2022-10-31T07:02:04;99822.34;;;9.08
70389;BMP280;58659;49.050;8.530;2022-10-31T07:04:30;99839.28;;;8.99
70389;BMP280;58659;49.050;8.530;2022-10-31T07:06:55;99839.66;;;9.01
70389;BMP280;58659;49.050;8.530;2022-10-31T07:09:20;99847.91;;;9.03
70389;BMP280;58659;49.050;8.530;2022-10-31T07:11:47;99855.06;;;9.06
70389;BMP280;58659;49.050;8.530;2022-10-31T07:14:15;99853.22;;;9.06
70389;BMP280;58659;49.050;8.530;2022-10-31T07:16:40;99858.41;;;9.06
70389;BMP280;58659;49.050;8.530;2022-10-31T07:19:05;99846.66;;;9.12
70389;BMP280;58659;49.050;8.530;2022-10-31T07:21:40;99840.94;;;9.22
70389;BMP280;58659;49.050;8.530;2022-10-31T07:24:14;99834.91;;;9.34
70389;BMP280;58659;49.050;8.530;2022-10-31T07:26:40;99828.41;;;9.43
70389;BMP280;58659;49.050;8.530;2022-10-31T07:29:13;99822.25;;;9.52
70389;BMP280;58659;49.050;8.530;2022-10-31T07:31:41;99820.19;;;9.61
70389;BMP280;58659;49.050;8.530;2022-10-31T07:34:09;99831.44;;;9.65
70389;BMP280;58659;49.050;8.530;2022-10-31T07:36:34;99836.06;;;9.71
70389;BMP280;58659;49.050;8.530;2022-10-31T07:38:59;99841.13;;;9.80
70389;BMP280;58659;49.050;8.530;2022-10-31T07:41:27;99843.88;;;9.87
70389;BMP280;58659;49.050;8.530;2022-10-31T07:44:01;99852.06;;;9.89
70389;BMP280;58659;49.050;8.530;2022-10-31T07:46:27;99860.34;;;9.91
70389;BMP280;58659;49.050;8.530;2022-10-31T07:48:53;99882.72;;;9.92
70389;BMP280;58659;49.050;8.530;2022-10-31T07:51:21;99878.34;;;9.96
70389;BMP280;58659;49.050;8.530;2022-10-31T07:53:51;99891.53;;;10.03
70389;BMP280;58659;49.050;8.530;2022-10-31T07:56:17;99886.03;;;10.08
70389;BMP280;58659;49.050;8.530;2022-10-31T07:58:42;99884.72;;;10.18
70389;BMP280;58659;49.050;8.530;2022-10-31T08:01:07;99877.81;;;10.25
70389;BMP280;58659;49.050;8.530;2022-10-31T08:03:33;99891.75;;;10.33
70389;BMP280;58659;49.050;8.530;2022-10-31T08:05:58;99876.63;;;10.42
70389;BMP280;58659;49.050;8.530;2022-10-31T08:08:23;99887.63;;;10.51
70389;BMP280;58659;49.050;8.530;2022-10-31T08:10:49;99890.31;;;10.55
70389;BMP280;58659;49.050;8.530;2022-10-31T08:13:14;99892.28;;;10.61
70389;BMP280;58659;49.050;8.530;2022-10-31T08:15:39;99881.91;;;10.65
70389;BMP280;58659;49.050;8.530;2022-10-31T08:18:07;99881.34;;;10.75
70389;BMP280;58659;49.050;8.530;2022-10-31T08:20:35;99870.75;;;10.87
70389;BMP280;58659;49.050;8.530;2022-10-31T08:23:01;99870.88;;;10.97
70389;BMP280;58659;49.050;8.530;2022-10-31T08:25:27;99561.94;;;9.57
70389;BMP280;58659;49.050;8.530;2022-10-31T08:27:53;99590.25;;;9.59
70389;BMP280;58659;49.050;8.530;2022-10-31T08:30:19;99551.81;;;9.52
70389;BMP280;58659;49.050;8.530;2022-10-31T08:32:45;99576.38;;;9.96
70389;BMP280;58659;49.050;8.530;2022-10-31T08:35:10;99558.22;;;9.81
70389;BMP280;58659;49.050;8.530;2022-10-31T08:37:36;99592.13;;;10.26
70389;BMP280;58659;49.050;8.530;2022-10-31T08:40:01;99628.69;;;10.79
70389;BMP280;58659;49.050;8.530;2022-10-31T08:42:26;99744.50;;;11.42
70389;BMP280;58659;49.050;8.530;2022-10-31T08:44:51;99676.50;;;11.09
70389;BMP280;58659;49.050;8.530;2022-10-31T08:47:16;99641.44;;;10.84
70389;BMP280;58659;49.050;8.530;2022-10-31T08:49:42;99738.75;;;11.60
70389;BMP280;58659;49.050;8.530;2022-10-31T08:52:07;99688.25;;;11.22
70389;BMP280;58659;49.050;8.530;2022-10-31T08:54:32;99683.56;;;11.38
70389;BMP280;58659;49.050;8.530;2022-10-31T08:56:57;99695.00;;;11.23
70389;BMP280;58659;49.050;8.530;2022-10-31T08:59:25;99734.22;;;11.57
70389;BMP280;58659;49.050;8.530;2022-10-31T09:01:50;99748.69;;;11.77
70389;BMP280;58659;49.050;8.530;2022-10-31T09:04:15;99713.56;;;11.78
70389;BMP280;58659;49.050;8.530;2022-10-31T09:06:41;99746.41;;;12.12
70389;BMP280;58659;49.050;8.530;2022-10-31T09:09:06;99776.47;;;12.29
70389;BMP280;58659;49.050;8.530;2022-10-31T09:11:31;99799.00;;;12.81
70389;BMP280;58659;49.050;8.530;2022-10-31T09:13:56;99780.50;;;12.63
70389;BMP280;58659;49.050;8.530;2022-10-31T09:16:21;99786.16;;;12.65
70389;BMP280;58659;49.050;8.530;2022-10-31T09:18:47;99827.13;;;12.84
70389;BMP280;58659;49.050;8.530;2022-10-31T09:21:12;99868.00;;;12.92
70389;BMP280;58659;49.050;8.530;2022-10-31T09:23:37;99930.22;;;13.46
70389;BMP280;58659;49.050;8.530;2022-10-31T09:26:02;99913.00;;;13.52
70389;BMP280;58659;49.050;8.530;2022-10-31T09:28:28;99974.19;;;13.63
70389;BMP280;58659;49.050;8.530;2022-10-31T09:30:54;100022.81;;;13.97
70389;BMP280;58659;49.050;8.530;2022-10-31T09:33:19;99970.19;;;13.80
70389;BMP280;58659;49.050;8.530;2022-10-31T09:35:45;99939.50;;;13.98
70389;BMP280;58659;49.050;8.530;2022-10-31T09:38:14;99951.88;;;14.04
70389;BMP280;58659;49.050;8.530;2022-10-31T09:50:51;100034.75;;;14.67
70389;BMP280;58659;49.050;8.530;2022-10-31T09:55:47;100002.78;;;14.65
70389;BMP280;58659;49.050;8.530;2022-10-31T09:58:15;100104.75;;;15.28
70389;BMP280;58659;49.050;8.530;2022-10-31T10:00:42;100108.91;;;15.36
70389;BMP280;58659;49.050;8.530;2022-10-31T10:05:41;100188.63;;;15.33
70389;BMP280;58659;49.050;8.530;2022-10-31T10:08:13;100169.81;;;15.38
70389;BMP280;58659;49.050;8.530;2022-10-31T10:10:50;100173.97;;;15.43
70389;BMP280;58659;49.050;8.530;2022-10-31T10:15:55;100161.56;;;15.50
70389;BMP280;58659;49.050;8.530;2022-10-31T10:20:59;100184.91;;;15.62
70389;BMP280;58659;49.050;8.530;2022-10-31T10:26:02;100111.16;;;15.41
70389;BMP280;58659;49.050;8.530;2022-10-31T10:28:33;100057.75;;;15.41
70389;BMP280;58659;49.050;8.530;2022-10-31T10:31:05;100131.09;;;15.56
70389;BMP280;58659;49.050;8.530;2022-10-31T10:33:43;100129.22;;;15.71
70389;BMP280;58659;49.050;8.530;2022-10-31T10:38:54;100138.25;;;15.91
70389;BMP280;58659;49.050;8.530;2022-10-31T10:41:22;100200.31;;;16.27
70389;BMP280;58659;49.050;8.530;2022-10-31T10:43:51;100182.97;;;16.37
70389;BMP280;58659;49.050;8.530;2022-10-31T10:46:17;100191.59;;;16.48
70389;BMP280;58659;49.050;8.530;2022-10-31T10:51:43;100197.59;;;16.70
70389;BMP280;58659;49.050;8.530;2022-10-31T10:57:00;100197.84;;;16.89
70389;BMP280;58659;49.050;8.530;2022-10-31T10:59:29;100092.53;;;16.47
70389;BMP280;58659;49.050;8.530;2022-10-31T11:01:55;100114.69;;;16.57
70389;BMP280;58659;49.050;8.530;2022-10-31T11:04:26;100217.72;;;17.11
70389;BMP280;58659;49.050;8.530;2022-10-31T11:06:56;100202.59;;;17.23
70389;BMP280;58659;49.050;8.530;2022-10-31T11:09:21;100204.78;;;17.35
70389;BMP280;58659;49.050;8.530;2022-10-31T11:11:47;100208.97;;;17.29
70389;BMP280;58659;49.050;8.530;2022-10-31T11:14:13;100204.81;;;17.31
70389;BMP280;58659;49.050;8.530;2022-10-31T11:16:40;100190.72;;;17.48
70389;BMP280;58659;49.050;8.530;2022-10-31T11:21:37;100198.09;;;17.71
70389;BMP280;58659;49.050;8.530;2022-10-31T11:24:23;100197.53;;;17.90
70389;BMP280;58659;49.050;8.530;2022-10-31T11:26:48;100203.50;;;18.01
70389;BMP280;58659;49.050;8.530;2022-10-31T11:29:15;100203.13;;;17.99
70389;BMP280;58659;49.050;8.530;2022-10-31T11:31:41;100194.81;;;18.01
70389;BMP280;58659;49.050;8.530;2022-10-31T11:34:12;100192.94;;;18.01
70389;BMP280;58659;49.050;8.530;2022-10-31T11:36:38;100187.91;;;18.10
70389;BMP280;58659;49.050;8.530;2022-10-31T11:39:04;100188.63;;;18.14
70389;BMP280;58659;49.050;8.530;2022-10-31T11:41:36;100199.84;;;18.25
70389;BMP280;58659;49.050;8.530;2022-10-31T11:44:11;100198.88;;;18.12
70389;BMP280;58659;49.050;8.530;2022-10-31T11:46:43;100194.06;;;17.56
70389;BMP280;58659;49.050;8.530;2022-10-31T11:49:40;100175.34;;;17.33
70389;BMP280;58659;49.050;8.530;2022-10-31T11:52:14;100175.34;;;17.33
70389;BMP280;58659;49.050;8.530;2022-10-31T11:57:24;100183.41;;;17.70
70389;BMP280;58659;49.050;8.530;2022-10-31T11:59:51;100187.75;;;17.87
70389;BMP280;58659;49.050;8.530;2022-10-31T12:02:17;100191.88;;;17.92
70389;BMP280;58659;49.050;8.530;2022-10-31T12:04:44;100195.81;;;17.73
70389;BMP280;58659;49.050;8.530;2022-10-31T12:07:11;100185.38;;;17.55
70389;BMP280;58659;49.050;8.530;2022-10-31T12:09:36;100168.94;;;17.34
70389;BMP280;58659;49.050;8.530;2022-10-31T12:14:50;100169.09;;;17.64
70389;BMP280;58659;49.050;8.530;2022-10-31T12:17:19;100176.03;;;17.44
70389;BMP280;58659;49.050;8.530;2022-10-31T12:22:42;100170.88;;;17.30
70389;BMP280;58659;49.050;8.530;2022-10-31T12:30:40;100136.53;;;17.74
70389;BMP280;58659;49.050;8.530;2022-10-31T12:35:39;100112.94;;;17.90
70389;BMP280;58659;49.050;8.530;2022-10-31T12:38:10;100112.88;;;17.97
70389;BMP280;58659;49.050;8.530;2022-10-31T12:48:56;100108.16;;;18.15
70389;BMP280;58659;49.050;8.530;2022-10-31T12:51:28;100106.63;;;18.18
70389;BMP280;58659;49.050;8.530;2022-10-31T12:54:03;100099.25;;;18.02
70389;BMP280;58659;49.050;8.530;2022-10-31T12:59:35;100076.75;;;17.87
70389;BMP280;58659;49.050;8.530;2022-10-31T13:07:07;100085.22;;;18.05
70389;BMP280;58659;49.050;8.530;2022-10-31T13:09:38;100071.06;;;18.76
70389;BMP280;58659;49.050;8.530;2022-10-31T13:12:09;100078.50;;;20.45
70389;BMP280;58659;49.050;8.530;2022-10-31T13:14:37;100090.06;;;22.27
70389;BMP280;58659;49.050;8.530;2022-10-31T13:17:03;100084.56;;;23.67
70389;BMP280;58659;49.050;8.530;2022-10-31T13:19:30;100080.69;;;24.57
70389;BMP280;58659;49.050;8.530;2022-10-31T13:24:31;100092.59;;;24.65
70389;BMP280;58659;49.050;8.530;2022-10-31T13:26:58;100104.31;;;22.46
70389;BMP280;58659;49.050;8.530;2022-10-31T13:29:27;100099.53;;;20.56
70389;BMP280;58659;49.050;8.530;2022-10-31T13:31:53;100097.94;;;19.87
70389;BMP280;58659;49.050;8.530;2022-10-31T13:34:34;100086.69;;;19.99
70389;BMP280;58659;49.050;8.530;2022-10-31T13:45:15;100054.72;;;21.47
70389;BMP280;58659;49.050;8.530;2022-10-31T13:47:41;100053.97;;;22.13
70389;BMP280;58659;49.050;8.530;2022-10-31T13:50:30;100045.25;;;22.00
70389;BMP280;58659;49.050;8.530;2022-10-31T13:53:12;100053.31;;;21.84
70389;BMP280;58659;49.050;8.530;2022-10-31T13:55:39;100050.03;;;22.30
70389;BMP280;58659;49.050;8.530;2022-10-31T13:58:16;100062.56;;;22.43
70389;BMP280;58659;49.050;8.530;2022-10-31T14:00:44;100055.75;;;22.42
70389;BMP280;58659;49.050;8.530;2022-10-31T14:03:16;100061.72;;;22.46
70389;BMP280;58659;49.050;8.530;2022-10-31T14:05:42;100051.81;;;21.83
70389;BMP280;58659;49.050;8.530;2022-10-31T14:08:15;100047.75;;;21.25
70389;BMP280;58659;49.050;8.530;2022-10-31T14:10:46;100036.50;;;20.60
70389;BMP280;58659;49.050;8.530;2022-10-31T14:13:18;100030.38;;;19.55
70389;BMP280;58659;49.050;8.530;2022-10-31T14:16:01;99778.59;;;17.25
70389;BMP280;58659;49.050;8.530;2022-10-31T14:18:31;99786.09;;;16.63
70389;BMP280;58659;49.050;8.530;2022-10-31T14:20:57;99766.56;;;16.12
70389;BMP280;58659;49.050;8.530;2022-10-31T14:28:44;100000.44;;;16.74
70389;BMP280;58659;49.050;8.530;2022-10-31T14:31:24;99989.94;;;16.63
70389;BMP280;58659;49.050;8.530;2022-10-31T14:33:52;99977.53;;;16.60
70389;BMP280;58659;49.050;8.530;2022-10-31T14:36:19;99978.09;;;16.85
70389;BMP280;58659;49.050;8.530;2022-10-31T14:44:13;100002.09;;;17.80
70389;BMP280;58659;49.050;8.530;2022-10-31T14:47:00;99998.25;;;17.84
70389;BMP280;58659;49.050;8.530;2022-10-31T14:50:12;99993.84;;;17.74
70389;BMP280;58659;49.050;8.530;2022-10-31T14:52:16;99987.97;;;17.59
70389;BMP280;58659;49.050;8.530;2022-10-31T14:54:43;99991.53;;;17.46
70389;BMP280;58659;49.050;8.530;2022-10-31T14:57:19;99987.47;;;17.34
70389;BMP280;58659;49.050;8.530;2022-10-31T14:59:46;99981.28;;;17.07
70389;BMP280;58659;49.050;8.530;2022-10-31T15:02:16;99959.19;;;16.94
70389;BMP280;58659;49.050;8.530;2022-10-31T15:04:43;99958.09;;;16.91
70389;BMP280;58659;49.050;8.530;2022-10-31T15:07:16;99950.22;;;16.84
70389;BMP280;58659;49.050;8.530;2022-10-31T15:09:42;99935.28;;;16.71
70389;BMP280;58659;49.050;8.530;2022-10-31T15:14:48;99920.63;;;16.59
70389;BMP280;58659;49.050;8.530;2022-10-31T15:17:14;99904.59;;;16.36
70389;BMP280;58659;49.050;8.530;2022-10-31T15:19:40;99621.72;;;15.06
70389;BMP280;58659;49.050;8.530;2022-10-31T15:22:07;99669.06;;;15.06
70389;BMP280;58659;49.050;8.530;2022-10-31T15:24:36;99739.63;;;15.32
70389;BMP280;58659;49.050;8.530;2022-10-31T15:27:02;99696.16;;;15.10
70389;BMP280;58659;49.050;8.530;2022-10-31T15:29:27;99731.28;;;15.44
70389;BMP280;58659;49.050;8.530;2022-10-31T15:34:24;99713.31;;;15.32
70389;BMP280;58659;49.050;8.530;2022-10-31T15:36:51;99657.75;;;15.12
70389;BMP280;58659;49.050;8.530;2022-10-31T15:39:16;99695.38;;;15.06
70389;BMP280;58659;49.050;8.530;2022-10-31T15:41:52;99699.03;;;15.29
70389;BMP280;58659;49.050;8.530;2022-10-31T15:44:22;99613.41;;;15.11
70389;BMP280;58659;49.050;8.530;2022-10-31T15:47:12;99654.41;;;15.15
70389;BMP280;58659;49.050;8.530;2022-10-31T15:49:37;99640.53;;;15.04
70389;BMP280;58659;49.050;8.530;2022-10-31T15:52:04;99632.69;;;14.97
70389;BMP280;58659;49.050;8.530;2022-10-31T15:54:31;99625.88;;;15.00
70389;BMP280;58659;49.050;8.530;2022-10-31T15:56:56;99640.53;;;15.04
70389;BMP280;58659;49.050;8.530;2022-10-31T15:59:22;99576.03;;;14.78
70389;BMP280;58659;49.050;8.530;2022-10-31T16:02:01;99593.66;;;14.82
70389;BMP280;58659;49.050;8.530;2022-10-31T16:04:27;99568.19;;;14.64
70389;BMP280;58659;49.050;8.530;2022-10-31T16:06:58;99568.19;;;14.68
70389;BMP280;58659;49.050;8.530;2022-10-31T16:09:24;99567.88;;;14.62
70389;BMP280;58659;49.050;8.530;2022-10-31T16:11:50;99449.47;;;14.00
70389;BMP280;58659;49.050;8.530;2022-10-31T16:14:16;99346.19;;;13.41